Home > Products > Valid Products > TAF

000
FTUS45 KABQ 041722
TAFLVS
TAF
KLVS 041722Z 0418/0518 23011KT P6SM SCT120
     FM042100 23011G21KT P6SM SCT100
     FM050100 23009KT P6SM SCT120
     FM050600 35007KT P6SM SKC
      AMD NOT SKED=



000
FTUS45 KABQ 041722
TAFFMN
TAF
KFMN 041722Z 0418/0518 27008KT P6SM FEW100
     FM042000 28011G19KT P6SM SCT100
     FM050200 VRB05KT P6SM FEW100
     FM050600 06006KT P6SM SKC=



000
FTUS45 KABQ 041722
TAFLVS
TAF
KLVS 041722Z 0418/0518 23011KT P6SM SCT120
     FM042100 23011G21KT P6SM SCT100
     FM050100 23009KT P6SM SCT120
     FM050600 35007KT P6SM SKC
      AMD NOT SKED=



000
FTUS45 KABQ 041722
TAFGUP
TAF
KGUP 041722Z 0418/0518 VRB05KT P6SM FEW100
     FM041900 26014KT P6SM SCT090
     FM050200 VRB05KT P6SM SKC=



000
FTUS45 KABQ 041722
TAFTCC
TAF
KTCC 041722Z 0418/0518 28005KT P6SM SKC
     FM042100 16008KT P6SM FEW120
     FM050600 21008KT P6SM SKC=



000
FTUS45 KABQ 041722
TAFROW
TAF
KROW 041722Z 0418/0518 04005KT P6SM SKC
     FM042000 32006KT P6SM FEW070
     FM050300 18006KT P6SM FEW120=



000
FTUS45 KABQ 041722
TAFGUP
TAF
KGUP 041722Z 0418/0518 VRB05KT P6SM FEW100
     FM041900 26014KT P6SM SCT090
     FM050200 VRB05KT P6SM SKC=



000
FTUS45 KABQ 041722
TAFSAF
TAF
KSAF 041722Z 0418/0518 25007KT P6SM SCT090
     FM042100 28012KT P6SM SCT090
     FM050200 31009KT P6SM SCT100
     FM050500 36010KT P6SM SKC=



000
FTUS45 KABQ 041722
TAFFMN
TAF
KFMN 041722Z 0418/0518 27008KT P6SM FEW100
     FM042000 28011G19KT P6SM SCT100
     FM050200 VRB05KT P6SM FEW100
     FM050600 06006KT P6SM SKC=



000
FTUS45 KABQ 041722
TAFROW
TAF
KROW 041722Z 0418/0518 04005KT P6SM SKC
     FM042000 32006KT P6SM FEW070
     FM050300 18006KT P6SM FEW120=



000
FTUS45 KABQ 041722
TAFABQ
TAF
KABQ 041722Z 0418/0518 23006KT P6SM FEW100
     FM042200 29011KT P6SM SCT100
     FM050300 VRB03KT P6SM SKC=



000
FTUS45 KABQ 041722
TAFABQ
TAF
KABQ 041722Z 0418/0518 23006KT P6SM FEW100
     FM042200 29011KT P6SM SCT100
     FM050300 VRB03KT P6SM SKC=



000
FTUS45 KABQ 041722
TAFTCC
TAF
KTCC 041722Z 0418/0518 28005KT P6SM SKC
     FM042100 16008KT P6SM FEW120
     FM050600 21008KT P6SM SKC=



000
FTUS45 KABQ 041722
TAFSAF
TAF
KSAF 041722Z 0418/0518 25007KT P6SM SCT090
     FM042100 28012KT P6SM SCT090
     FM050200 31009KT P6SM SCT100
     FM050500 36010KT P6SM SKC=



000
FTUS45 KABQ 041123
TAFSAF
TAF
KSAF 041123Z 0412/0512 36007KT P6SM SKC
     FM041800 28011KT P6SM SCT100
     FM050100 31009KT P6SM SCT100
     FM050400 36010KT P6SM FEW110=



000
FTUS45 KABQ 041123
TAFFMN
TAF
KFMN 041123Z 0412/0512 10006KT P6SM SCT120
     FM041800 27008KT P6SM FEW100
     FM042000 28011G19KT P6SM SCT100
     FM050200 VRB05KT P6SM FEW100=



000
FTUS45 KABQ 041123
TAFTCC
TAF
KTCC 041123Z 0412/0512 VRB06KT P6SM FEW120
     FM042100 16008KT P6SM FEW120
     FM050600 21008KT P6SM SKC=



000
FTUS45 KABQ 041123
TAFGUP
TAF
KGUP 041123Z 0412/0512 VRB05KT P6SM FEW100
     FM041900 26010KT P6SM SCT100
     FM050200 VRB05KT P6SM FEW100=



000
FTUS45 KABQ 041123
TAFABQ
TAF
KABQ 041123Z 0412/0512 VRB05KT P6SM SKC
     FM041700 29006KT P6SM FEW120
     FM042200 29009KT P6SM SCT120
     FM050200 VRB05KT P6SM FEW120=



000
FTUS45 KABQ 041123
TAFLVS
TAF
KLVS 041123Z 0412/0512 01007KT P6SM SKC
     FM041900 23011KT P6SM SCT120
     FM042100 23011G21KT P6SM SCT100
     FM050100 23009KT P6SM SCT120
     FM050600 35007KT P6SM SKC
      AMD NOT SKED=



000
FTUS45 KABQ 041123
TAFROW
TAF
KROW 041123Z 0412/0512 VRB06KT P6SM SCT250
     FM041500 36008KT P6SM SKC
     FM050300 18006KT P6SM FEW120=



000
FTUS45 KABQ 040539
TAFFMN
TAF
KFMN 040539Z 0406/0506 09006KT P6SM VCSH BKN100
     FM040900 09006KT P6SM SCT100
     FM041900 28011G19KT P6SM SCT100
     FM050200 31008KT P6SM FEW100=



000
FTUS45 KABQ 040539
TAFABQ
TAF
KABQ 040539Z 0406/0506 36006KT P6SM SKC
     FM041700 30006KT P6SM FEW120
     FM042200 29009KT P6SM SCT120
     FM050200 03006KT P6SM FEW120=



000
FTUS45 KABQ 040539
TAFSAF
TAF
KSAF 040539Z 0406/0506 36009KT P6SM SKC
     FM041800 28009KT P6SM SCT120
     FM042100 29010G19KT P6SM VCSH BKN100
     FM050100 31009KT P6SM SCT100
     FM050400 36006KT P6SM FEW110=



000
FTUS45 KABQ 040539
TAFROW
TAF
KROW 040539Z 0406/0506 17008KT P6SM SCT200
     FM040900 VRB06KT P6SM SCT200
     FM041500 36008KT P6SM SCT120=



000
FTUS45 KABQ 040539
TAFTCC
TAF
KTCC 040539Z 0406/0506 36011KT P6SM BKN100
      TEMPO 0406/0409 03011G21KT
     FM040900 VRB06KT P6SM FEW120
     FM042100 14008KT P6SM FEW120=



000
FTUS45 KABQ 040539
TAFLVS
TAF
KLVS 040539Z 0406/0506 35007KT P6SM SCT120
     FM041900 23011KT P6SM SCT120
     FM042100 23011G21KT P6SM VCSH BKN100
     FM050100 23009KT P6SM SCT120
      AMD NOT SKED=



000
FTUS45 KABQ 040539
TAFGUP
TAF
KGUP 040539Z 0406/0506 VRB05KT P6SM SCT120
     FM041900 26010KT P6SM SCT100
     FM050200 VRB06KT P6SM FEW100=



000
FTUS45 KABQ 032339
TAFGUP
TAF
KGUP 032339Z 0400/0424 32010KT P6SM SCT100
     FM040200 VRB05KT P6SM FEW120
     FM041900 26010KT P6SM SCT100=



000
FTUS45 KABQ 032339
TAFLVS
TAF
KLVS 032339Z 0400/0424 28011KT P6SM FEW070 SCT120
     FM040200 35007KT P6SM SCT120
     FM041900 23011G21KT P6SM SCT120
      AMD NOT SKED=



000
FTUS45 KABQ 032339
TAFABQ
TAF
KABQ 032339Z 0400/0424 32011G19KT P6SM SCT080 SCT150
     FM040200 36006KT P6SM SKC
     FM041700 31006KT P6SM FEW120
     FM042200 29009KT P6SM SCT120=



000
FTUS45 KABQ 032339
TAFTCC
TAF
KTCC 032339Z 0400/0424 18011KT P6SM VCSH SCT060 BKN100
     FM040400 16010KT P6SM SCT100
     FM040900 VRB06KT P6SM FEW120
     FM042100 14008KT P6SM FEW120=



000
FTUS45 KABQ 032339
TAFSAF
TAF
KSAF 032339Z 0400/0424 33011KT P6SM SCT090
      TEMPO 0400/0402 33011G19KT
     FM040400 36009KT P6SM FEW120
     FM041800 28010KT P6SM SCT120=



000
FTUS45 KABQ 032339
TAFROW
TAF
KROW 032339Z 0400/0424 19009KT P6SM BKN100
     FM040900 VRB06KT P6SM FEW120=



000
FTUS45 KABQ 032339
TAFFMN
TAF
KFMN 032339Z 0400/0424 30012G22KT P6SM FEW100
     FM040200 30007KT P6SM FEW100
     FM040800 09006KT P6SM SKC
     FM041900 28011KT P6SM SCT100=



000
FTUS45 KABQ 032250 AAA
TAFSAF
TAF AMD
KSAF 032250Z 0323/0418 28011KT P6SM SCT070 SCT150
      TEMPO 0323/0402 28011G19KT
     FM040200 35006KT P6SM FEW120=



000
FTUS45 KABQ 032249 AAB
TAFABQ
TAF AMD
KABQ 032249Z 0323/0418 32011G19KT P6SM SCT080 SCT150
     FM040200 36006KT P6SM FEW150=



000
FTUS45 KABQ 032153 AAA
TAFROW
TAF AMD
KROW 032153Z 0322/0418 27014KT P6SM VCTS BKN070CB BKN120
      TEMPO 0322/0323 -SHRA OVC070
     FM040100 18009KT P6SM SCT100 BKN150
     FM040300 25006KT P6SM FEW150=



000
FTUS45 KABQ 031720
TAFGUP
TAF
KGUP 031720Z 0318/0418 30006KT P6SM FEW090
     FM032000 29011G18KT P6SM SCT100
     FM040200 VRB05KT P6SM FEW120=



000
FTUS45 KABQ 031720
TAFFMN
TAF
KFMN 031720Z 0318/0418 09007KT P6SM SKC
     FM032000 29012G22KT P6SM FEW100
     FM040200 30007KT P6SM FEW100
     FM040800 07006KT P6SM SKC=



000
FTUS45 KABQ 031720
TAFLVS
TAF
KLVS 031720Z 0318/0418 23008KT P6SM FEW120
     FM031900 24012KT P6SM SCT070 SCT120
     FM040200 32008KT P6SM SCT100
      AMD NOT SKED=



000
FTUS45 KABQ 031720
TAFSAF
TAF
KSAF 031720Z 0318/0418 29011KT P6SM FEW050 FEW150
     FM032000 28012G18KT P6SM SCT070 SCT150
     FM040200 35006KT P6SM FEW120=



000
FTUS45 KABQ 031720
TAFABQ
TAF
KABQ 031720Z 0318/0418 23005KT P6SM FEW050 FEW150
     FM032000 29010KT P6SM SCT080 SCT150
     FM040200 36006KT P6SM FEW150=



000
FTUS45 KABQ 031720
TAFROW
TAF
KROW 031720Z 0318/0418 35008KT P6SM SCT060 SCT140
     FM032100 21010KT P6SM VCTS BKN060CB BKN100
     FM040100 18009KT P6SM FEW100=



000
FTUS45 KABQ 031720
TAFTCC
TAF
KTCC 031720Z 0318/0418 22010KT P6SM SCT060 SCT120
     FM032300 21011KT P6SM VCSH SCT060 BKN100
     FM040200 19010KT P6SM VCTS BKN060CB BKN100
     FM040600 23007KT P6SM FEW120=



000
FTUS45 KABQ 031254 AAB
TAFGUP
TAF AMD
KGUP 031254Z 0313/0412 VRB05KT P6SM SKC
      TEMPO 0313/0314 1/4SM FG VV002
     FM032000 28011KT P6SM FEW120
     FM040200 VRB05KT P6SM FEW120=



000
FTUS45 KABQ 031254 AAB
TAFGUP
TAF AMD
KGUP 031254Z 0313/0412 VRB05KT P6SM SKC
      TEMPO 0313/0314 1/4SM FG VV002
     FM032000 28011KT P6SM FEW120
     FM040200 VRB05KT P6SM FEW120=



000
FTUS45 KABQ 031228 AAA
TAFGUP
TAF AMD
KGUP 031228Z 0312/0412 VRB05KT P6SM SKC
      TEMPO 0312/0314 1SM BR
     FM032000 28011KT P6SM FEW120
     FM040200 VRB05KT P6SM FEW120=



000
FTUS45 KABQ 031228 AAA
TAFGUP
TAF AMD
KGUP 031228Z 0312/0412 VRB05KT P6SM SKC
      TEMPO 0312/0314 1SM BR
     FM032000 28011KT P6SM FEW120
     FM040200 VRB05KT P6SM FEW120=



000
FTUS45 KABQ 031121
TAFFMN
TAF
KFMN 031121Z 0312/0412 09007KT P6SM SKC
     FM032000 29012G20KT P6SM FEW100
     FM040200 30007KT P6SM FEW100
     FM040800 07006KT P6SM SKC=



000
FTUS45 KABQ 031121
TAFSAF
TAF
KSAF 031121Z 0312/0412 36009KT P6SM SCT100
     FM031700 29011KT P6SM SCT100
     FM040200 35006KT P6SM FEW120=



000
FTUS45 KABQ 031121
TAFABQ
TAF
KABQ 031121Z 0312/0412 VRB06KT P6SM FEW040 SCT120
     FM031900 29010KT P6SM SCT100
     FM040200 36006KT P6SM FEW150=



000
FTUS45 KABQ 031121
TAFGUP
TAF
KGUP 031121Z 0312/0412 VRB05KT P6SM SKC
     FM032000 28011KT P6SM FEW120
     FM040200 VRB05KT P6SM FEW120=



000
FTUS45 KABQ 031121
TAFTCC
TAF
KTCC 031121Z 0312/0412 VRB05KT P6SM VCSH BKN110
     FM031400 25007KT P6SM BKN120
     FM031900 22010KT P6SM SCT120
     FM032200 21011KT P6SM VCSH SCT060 BKN100
     FM040200 19010KT P6SM SCT100=



000
FTUS45 KABQ 031121
TAFROW
TAF
KROW 031121Z 0312/0412 35008KT P6SM BKN130
     FM032100 21010KT P6SM VCTS SCT060 BKN100CB
     FM040100 18009KT P6SM SCT100=



000
FTUS45 KABQ 031121
TAFLVS
TAF
KLVS 031121Z 0312/0412 32006KT P6SM BKN120
     FM031500 23008KT P6SM FEW120
     FM031900 24012KT P6SM SCT080
     FM040200 32008KT P6SM SCT100
      AMD NOT SKED=



000
FTUS45 KABQ 031121
TAFGUP
TAF
KGUP 031121Z 0312/0412 VRB05KT P6SM SKC
     FM032000 28011KT P6SM FEW120
     FM040200 VRB05KT P6SM FEW120=



000
FTUS45 KABQ 031121
TAFROW
TAF
KROW 031121Z 0312/0412 35008KT P6SM BKN130
     FM032100 21010KT P6SM VCTS SCT060 BKN100CB
     FM040100 18009KT P6SM SCT100=



000
FTUS45 KABQ 031121
TAFFMN
TAF
KFMN 031121Z 0312/0412 09007KT P6SM SKC
     FM032000 29012G20KT P6SM FEW100
     FM040200 30007KT P6SM FEW100
     FM040800 07006KT P6SM SKC=



000
FTUS45 KABQ 031121
TAFTCC
TAF
KTCC 031121Z 0312/0412 VRB05KT P6SM VCSH BKN110
     FM031400 25007KT P6SM BKN120
     FM031900 22010KT P6SM SCT120
     FM032200 21011KT P6SM VCSH SCT060 BKN100
     FM040200 19010KT P6SM SCT100=



000
FTUS45 KABQ 031121
TAFABQ
TAF
KABQ 031121Z 0312/0412 VRB06KT P6SM FEW040 SCT120
     FM031900 29010KT P6SM SCT100
     FM040200 36006KT P6SM FEW150=



000
FTUS45 KABQ 031121
TAFSAF
TAF
KSAF 031121Z 0312/0412 36009KT P6SM SCT100
     FM031700 29011KT P6SM SCT100
     FM040200 35006KT P6SM FEW120=



000
FTUS45 KABQ 031121
TAFLVS
TAF
KLVS 031121Z 0312/0412 32006KT P6SM BKN120
     FM031500 23008KT P6SM FEW120
     FM031900 24012KT P6SM SCT080
     FM040200 32008KT P6SM SCT100
      AMD NOT SKED=



000
FTUS45 KABQ 030823 AAA
TAFFMN
TAF AMD
KFMN 030823Z 0308/0406 08009KT P6SM BKN020
      TEMPO 0309/0313 SCT020
     FM031400 10007KT P6SM SKC
     FM032000 29012G20KT P6SM FEW100
     FM040200 30007KT P6SM FEW100=



000
FTUS45 KABQ 030539
TAFFMN
TAF
KFMN 030539Z 0306/0406 08009KT P6SM SCT100
     FM032000 29012G20KT P6SM FEW100
     FM040200 30007KT P6SM FEW100=



000
FTUS45 KABQ 030539
TAFSAF
TAF
KSAF 030539Z 0306/0406 01009KT P6SM VCSH BKN080
     FM031000 01009KT P6SM BKN100
     FM031700 29011KT P6SM SCT120
     FM040200 34006KT P6SM FEW120=



000
FTUS45 KABQ 030539
TAFROW
TAF
KROW 030539Z 0306/0406 36010KT P6SM SCT120
     FM032200 21010KT P6SM VCTS SCT060 BKN100CB
     FM040100 18009KT P6SM SCT100=



000
FTUS45 KABQ 030539
TAFABQ
TAF
KABQ 030539Z 0306/0406 27010KT P6SM VCSH SCT060 BKN100
     FM031000 VRB06KT P6SM SCT100
     FM031900 29010KT P6SM FEW150
     FM040200 36006KT P6SM FEW150=



000
FTUS45 KABQ 030539
TAFGUP
TAF
KGUP 030539Z 0306/0406 VRB05KT P6SM SCT100
     FM032000 28011KT P6SM FEW120
     FM040200 VRB05KT P6SM FEW120=



000
FTUS45 KABQ 030539
TAFLVS
TAF
KLVS 030539Z 0306/0406 35008KT P6SM VCSH BKN080
     FM031200 32006KT P6SM SCT100
     FM031900 23013G23KT P6SM SCT100
     FM040200 27008KT P6SM SCT100
      AMD NOT SKED=



000
FTUS45 KABQ 030539
TAFTCC
TAF
KTCC 030539Z 0306/0406 35008KT P6SM VCSH BKN120
     FM031800 22011KT P6SM SCT120
     FM032300 19011KT P6SM VCSH SCT060 BKN100
     FM040400 19010KT P6SM SCT100=



000
FTUS45 KABQ 030326 AAA
TAFFMN
TAF AMD
KFMN 030326Z 0303/0324 29011KT P6SM VCSH BKN080
      TEMPO 0303/0306 VRB15G25KT -TSRA BKN050CB
     FM031100 08006KT P6SM SCT150
     FM032000 29012G19KT P6SM FEW100=



000
FTUS45 KABQ 030326 AAA
TAFFMN
TAF AMD
KFMN 030326Z 0303/0324 29011KT P6SM VCSH BKN080
      TEMPO 0303/0306 VRB15G25KT -TSRA BKN050CB
     FM031100 08006KT P6SM SCT150
     FM032000 29012G19KT P6SM FEW100=



000
FTUS45 KABQ 030201 AAA
TAFTCC
TAF AMD
KTCC 030201Z 0302/0324 26010KT P6SM VCTS BKN070CB BKN100
      TEMPO 0302/0304 VRB15G25KT 6SM TSRA BKN050CB
     FM030400 03007KT P6SM VCSH BKN080
     FM031000 VRB05KT P6SM FEW025 BKN060=



000
FTUS45 KABQ 022350
TAFGUP
TAF
KGUP 022350Z 0300/0324 23012KT P6SM VCSH SCT060 BKN100
      TEMPO 0300/0304 VRB20G30KT 6SM -TSRA BKN060CB
     FM030500 VRB05KT P6SM FEW050 BKN080
     FM031000 VRB03KT P6SM SCT100
     FM032000 28011KT P6SM FEW120=



000
FTUS45 KABQ 022350
TAFGUP
TAF
KGUP 022350Z 0300/0324 23012KT P6SM VCSH SCT060 BKN100
      TEMPO 0300/0304 VRB20G30KT 6SM -TSRA BKN060CB
     FM030500 VRB05KT P6SM FEW050 BKN080
     FM031000 VRB03KT P6SM SCT100
     FM032000 28011KT P6SM FEW120=



000
FTUS45 KABQ 022348 CCA
TAFLVS
TAF COR
KLVS 022348Z 0300/0324 20012KT P6SM VCTS BKN050CB BKN100
      TEMPO 0300/0302 VRB15G25KT -SHRA OVC050
     FM030200 01008KT P6SM VCSH BKN080
     FM030900 VRB05KT P6SM BKN060
      AMD NOT SKED=



000
FTUS45 KABQ 022348 CCA
TAFLVS
TAF COR
KLVS 022348Z 0300/0324 20012KT P6SM VCTS BKN050CB BKN100
      TEMPO 0300/0302 VRB15G25KT -SHRA OVC050
     FM030200 01008KT P6SM VCSH BKN080
     FM030900 VRB05KT P6SM BKN060
      AMD NOT SKED=



000
FTUS45 KABQ 022326
TAFTCC
TAF
KTCC 022326Z 0300/0324 26010KT P6SM VCTS BKN070CB BKN100
      TEMPO 0301/0303 5SM TSRA BKN050CB
     FM030300 03007KT P6SM VCSH BKN080
     FM031000 VRB05KT P6SM FEW025 BKN060=



000
FTUS45 KABQ 022326
TAFABQ
TAF
KABQ 022326Z 0300/0324 25010KT P6SM VCSH SCT060 BKN100
     FM030300 32006KT P6SM VCSH BKN060
     FM030600 VRB05KT P6SM FEW050 BKN100
     FM031500 28006KT P6SM FEW150=



000
FTUS45 KABQ 022326
TAFFMN
TAF
KFMN 022326Z 0300/0324 21007KT P6SM VCTS BKN060CB BKN090
     FM030200 11008KT P6SM VCSH BKN080
      TEMPO 0302/0306 -TSRA BKN050CB
     FM031100 08006KT P6SM SCT150
     FM032000 29012G19KT P6SM FEW100=



000
FTUS45 KABQ 022326
TAFROW
TAF
KROW 022326Z 0300/0324 24007KT P6SM BKN100
     FM030300 25005KT P6SM VCSH BKN080
     FM030900 21007KT P6SM BKN100=



000
FTUS45 KABQ 022326
TAFGUP
TAF
KGUP 022326Z 0300/0324 23012KT P6SM VCSH BKN070 BKN100
     FM030500 VRB05KT P6SM FEW050 BKN080
     FM031000 VRB03KT P6SM SCT100
     FM032000 28011KT P6SM FEW120=



000
FTUS45 KABQ 022326
TAFSAF
TAF
KSAF 022326Z 0300/0324 33007KT P6SM VCSH SCT060 BKN100
     FM030300 05005KT P6SM VCSH BKN060
     FM030700 01006KT P6SM BKN080
     FM031700 29007KT P6SM SCT120=



000
FTUS45 KABQ 022326
TAFLVS
TAF
KLVS 022326Z 0300/0324 20012KT P6SM VCTS BKN050CB BKN100
      TEMPO 0300/0302 VRB15G25KT -SHRA OVC050
     FM030200 01008KT P6SM VCSH BKN080
     FM030900 VRB05KT P6SM BKN060=



000
FTUS45 KABQ 022326
TAFTCC
TAF
KTCC 022326Z 0300/0324 26010KT P6SM VCTS BKN070CB BKN100
      TEMPO 0301/0303 5SM TSRA BKN050CB
     FM030300 03007KT P6SM VCSH BKN080
     FM031000 VRB05KT P6SM FEW025 BKN060=



000
FTUS45 KABQ 022038 AAB
TAFABQ
TAF AMD
KABQ 022038Z 0221/0318 25008KT P6SM VCTS SCT070CB BKN100
      TEMPO 0222/0301 VRB15G27KT -TSRA BKN050CB
     FM030300 32006KT P6SM VCSH BKN060
     FM030600 VRB05KT P6SM FEW050 BKN070=



000
FTUS45 KABQ 022032 AAA
TAFROW
TAF AMD
KROW 022032Z 0221/0318 17012KT P6SM VCTS BKN060CB
      TEMPO 0221/0301 VRB15G25KT -TSRA SCT050CB BKN080
     FM030100 21007KT P6SM BKN080=



000
FTUS45 KABQ 021727
TAFTCC
TAF
KTCC 021727Z 0218/0318 23007KT P6SM SCT070 SCT120
     FM022300 18008KT P6SM VCTS BKN070CB
     FM030300 03007KT P6SM VCSH BKN100
     FM031100 VRB05KT 4SM BR FEW025 BKN060=



000
FTUS45 KABQ 021727
TAFSAF
TAF
KSAF 021727Z 0218/0318 VRB06KT P6SM SCT060 SCT100
     FM021900 26010KT P6SM VCTS BKN060CB
      TEMPO 0220/0223 VRB15G25KT -TSRA BKN050CB
     FM030000 33007KT P6SM VCSH BKN060
     FM030600 01006KT P6SM BKN080=



000
FTUS45 KABQ 021727
TAFROW
TAF
KROW 021727Z 0218/0318 VRB06KT P6SM SCT070 SCT120
     FM022100 17012KT P6SM VCTS BKN060CB
     FM030100 21007KT P6SM BKN080=



000
FTUS45 KABQ 021727
TAFSAF
TAF
KSAF 021727Z 0218/0318 VRB06KT P6SM SCT060 SCT100
     FM021900 26010KT P6SM VCTS BKN060CB
      TEMPO 0220/0223 VRB15G25KT -TSRA BKN050CB
     FM030000 33007KT P6SM VCSH BKN060
     FM030600 01006KT P6SM BKN080=



000
FTUS45 KABQ 021727
TAFLVS
TAF
KLVS 021727Z 0218/0318 VRB06KT P6SM SCT060 SCT110
     FM021930 20012KT P6SM VCTS BKN050CB
      TEMPO 0221/0301 VRB15G25KT 3SM TSRA BKN040CB
     FM030200 01008KT P6SM VCTS BKN040CB
     FM030900 VRB05KT P6SM BKN080=



000
FTUS45 KABQ 021727
TAFTCC
TAF
KTCC 021727Z 0218/0318 23007KT P6SM SCT070 SCT120
     FM022300 18008KT P6SM VCTS BKN070CB
     FM030300 03007KT P6SM VCSH BKN100
     FM031100 VRB05KT 4SM BR FEW025 BKN060=



000
FTUS45 KABQ 021727
TAFFMN
TAF
KFMN 021727Z 0218/0318 09007KT P6SM VCSH SCT050 BKN110
     FM022200 21007KT P6SM VCTS BKN050CB
     FM030200 11008KT P6SM VCSH BKN080
     FM031100 08006KT P6SM BKN150=



000
FTUS45 KABQ 021727
TAFGUP
TAF
KGUP 021727Z 0218/0318 VRB06KT P6SM VCSH SCT050 BKN110
     FM021900 23010KT P6SM VCTS BKN050CB
      TEMPO 0220/0223 VRB15G25KT 3SM TSRA BKN050CB
     FM022300 25012KT P6SM VCSH BKN060
     FM030500 VRB05KT P6SM FEW050 BKN080=



000
FTUS45 KABQ 021727
TAFABQ
TAF
KABQ 021727Z 0218/0318 VRB06KT P6SM SCT070 SCT110
     FM022200 25008KT P6SM VCTS BKN050CB BKN100
      TEMPO 0222/0301 25012G27KT
     FM030300 32006KT P6SM VCSH BKN060
     FM030600 VRB05KT P6SM FEW050 BKN070=



000
FTUS45 KABQ 021727
TAFROW
TAF
KROW 021727Z 0218/0318 VRB06KT P6SM SCT070 SCT120
     FM022100 17012KT P6SM VCTS BKN060CB
     FM030100 21007KT P6SM BKN080=



000
FTUS45 KABQ 021727
TAFLVS
TAF
KLVS 021727Z 0218/0318 VRB06KT P6SM SCT060 SCT110
     FM021930 20012KT P6SM VCTS BKN050CB
      TEMPO 0221/0301 VRB15G25KT 3SM TSRA BKN040CB
     FM030200 01008KT P6SM VCTS BKN040CB
     FM030900 VRB05KT P6SM BKN080=



000
FTUS45 KABQ 021727
TAFABQ
TAF
KABQ 021727Z 0218/0318 VRB06KT P6SM SCT070 SCT110
     FM022200 25008KT P6SM VCTS BKN050CB BKN100
      TEMPO 0222/0301 25012G27KT
     FM030300 32006KT P6SM VCSH BKN060
     FM030600 VRB05KT P6SM FEW050 BKN070=



000
FTUS45 KABQ 021727
TAFFMN
TAF
KFMN 021727Z 0218/0318 09007KT P6SM VCSH SCT050 BKN110
     FM022200 21007KT P6SM VCTS BKN050CB
     FM030200 11008KT P6SM VCSH BKN080
     FM031100 08006KT P6SM BKN150=



000
FTUS45 KABQ 021727
TAFGUP
TAF
KGUP 021727Z 0218/0318 VRB06KT P6SM VCSH SCT050 BKN110
     FM021900 23010KT P6SM VCTS BKN050CB
      TEMPO 0220/0223 VRB15G25KT 3SM TSRA BKN050CB
     FM022300 25012KT P6SM VCSH BKN060
     FM030500 VRB05KT P6SM FEW050 BKN080=



000
FTUS45 KABQ 021125
TAFFMN
TAF
KFMN 021125Z 0212/0312 09007KT P6SM VCSH SCT050 BKN090
     FM021700 16006KT P6SM VCTS BKN050CB BKN100
     FM022000 22007KT P6SM VCSH SCT060 BKN100
     FM022300 14007KT P6SM VCTS BKN050CB
      TEMPO 0223/0302 VRB15G25KT
     FM030300 11008KT P6SM VCSH SCT060 BKN100=



000
FTUS45 KABQ 021125
TAFFMN
TAF
KFMN 021125Z 0212/0312 09007KT P6SM VCSH SCT050 BKN090
     FM021700 16006KT P6SM VCTS BKN050CB BKN100
     FM022000 22007KT P6SM VCSH SCT060 BKN100
     FM022300 14007KT P6SM VCTS BKN050CB
      TEMPO 0223/0302 VRB15G25KT
     FM030300 11008KT P6SM VCSH SCT060 BKN100=



000
FTUS45 KABQ 021125
TAFABQ
TAF
KABQ 021125Z 0212/0312 VRB06KT P6SM FEW025 BKN100
     FM021800 23007KT P6SM SCT070 SCT120
     FM022100 25007KT P6SM VCTS BKN060CB BKN100
     FM030300 32006KT P6SM VCSH SCT060 BKN100=



000
FTUS45 KABQ 021125
TAFSAF
TAF
KSAF 021125Z 0212/0312 VRB06KT P6SM FEW025 BKN100
     FM021600 32006KT P6SM SCT060 SCT120
     FM021900 26010KT P6SM VCTS BKN050CB BKN090
      TEMPO 0220/0224 VRB15G25KT
     FM030100 33007KT P6SM VCSH SCT050 BKN090
     FM030600 01006KT P6SM BKN100=



000
FTUS45 KABQ 021125
TAFROW
TAF
KROW 021125Z 0212/0312 21006KT P6SM SCT100
     FM021800 18007KT P6SM SCT080 SCT150
     FM022100 16008KT P6SM VCTS BKN080CB BKN140
     FM030200 VRB06KT P6SM BKN100=



000
FTUS45 KABQ 021125
TAFGUP
TAF
KGUP 021125Z 0212/0312 23006KT P6SM VCSH SCT040 BKN080
     FM021800 23010KT P6SM VCTS BKN060CB
     FM022200 23012KT P6SM VCSH SCT060 BKN090
     FM030200 25006KT P6SM BKN080
     FM030600 VRB06KT P6SM FEW050 BKN100=



000
FTUS45 KABQ 021125
TAFLVS
TAF
KLVS 021125Z 0212/0312 VRB06KT P6SM FEW030 BKN100
     FM021600 21007KT P6SM SCT060 SCT120
     FM021900 24012KT P6SM VCTS SCT040 BKN070CB
      TEMPO 0219/0223 VRB15G25KT SHRA
     FM030200 02006KT P6SM VCSH SCT050 BKN080
     FM030800 VRB06KT P6SM BKN090=



000
FTUS45 KABQ 021125
TAFTCC
TAF
KTCC 021125Z 0212/0312 23007KT P6SM BKN120
      TEMPO 0215/0219 SCT120
     FM021900 24008KT P6SM SCT080 SCT140
     FM022300 18008KT P6SM VCTS BKN070CB BKN120
     FM030300 VRB06KT P6SM VCSH BKN100=



000
FTUS45 KABQ 021125
TAFLVS
TAF
KLVS 021125Z 0212/0312 VRB06KT P6SM FEW030 BKN100
     FM021600 21007KT P6SM SCT060 SCT120
     FM021900 24012KT P6SM VCTS SCT040 BKN070CB
      TEMPO 0219/0223 VRB15G25KT SHRA
     FM030200 02006KT P6SM VCSH SCT050 BKN080
     FM030800 VRB06KT P6SM BKN090=



000
FTUS45 KABQ 021125
TAFABQ
TAF
KABQ 021125Z 0212/0312 VRB06KT P6SM FEW025 BKN100
     FM021800 23007KT P6SM SCT070 SCT120
     FM022100 25007KT P6SM VCTS BKN060CB BKN100
     FM030300 32006KT P6SM VCSH SCT060 BKN100=



000
FTUS45 KABQ 021125
TAFTCC
TAF
KTCC 021125Z 0212/0312 23007KT P6SM BKN120
      TEMPO 0215/0219 SCT120
     FM021900 24008KT P6SM SCT080 SCT140
     FM022300 18008KT P6SM VCTS BKN070CB BKN120
     FM030300 VRB06KT P6SM VCSH BKN100=



000
FTUS45 KABQ 021125
TAFGUP
TAF
KGUP 021125Z 0212/0312 23006KT P6SM VCSH SCT040 BKN080
     FM021800 23010KT P6SM VCTS BKN060CB
     FM022200 23012KT P6SM VCSH SCT060 BKN090
     FM030200 25006KT P6SM BKN080
     FM030600 VRB06KT P6SM FEW050 BKN100=



000
FTUS45 KABQ 021125
TAFSAF
TAF
KSAF 021125Z 0212/0312 VRB06KT P6SM FEW025 BKN100
     FM021600 32006KT P6SM SCT060 SCT120
     FM021900 26010KT P6SM VCTS BKN050CB BKN090
      TEMPO 0220/0224 VRB15G25KT
     FM030100 33007KT P6SM VCSH SCT050 BKN090
     FM030600 01006KT P6SM BKN100=



000
FTUS45 KABQ 021125
TAFROW
TAF
KROW 021125Z 0212/0312 21006KT P6SM SCT100
     FM021800 18007KT P6SM SCT080 SCT150
     FM022100 16008KT P6SM VCTS BKN080CB BKN140
     FM030200 VRB06KT P6SM BKN100=



000
FTUS45 KABQ 020539
TAFROW
TAF
KROW 020539Z 0206/0306 17011KT P6SM BKN100
     FM030000 18009KT P6SM VCSH SCT060 BKN100=



000
FTUS45 KABQ 020539
TAFGUP
TAF
KGUP 020539Z 0206/0306 VRB06KT P6SM BKN090
     FM021900 23011KT P6SM VCTS BKN060CB
     FM022200 23011G19KT P6SM VCSH SCT060 BKN090
     FM030200 VRB06KT P6SM BKN100=



000
FTUS45 KABQ 020539
TAFLVS
TAF
KLVS 020539Z 0206/0306 VRB06KT P6SM BKN100
     FM021900 21011KT P6SM VCTS SCT040 BKN070CB
     FM022200 24011G19KT P6SM VCSH SCT050 BKN080
     FM030300 36008KT P6SM VCSH BKN090=



000
FTUS45 KABQ 020539
TAFFMN
TAF
KFMN 020539Z 0206/0306 09007KT P6SM VCSH SCT050 BKN090
     FM022000 22010KT P6SM VCSH SCT060 BKN100
     FM022300 VRB15G25KT P6SM VCTS BKN060CB
     FM030200 11008KT P6SM VCSH SCT060 BKN100=



000
FTUS45 KABQ 020539
TAFROW
TAF
KROW 020539Z 0206/0306 17011KT P6SM BKN100
     FM030000 18009KT P6SM VCSH SCT060 BKN100=



000
FTUS45 KABQ 020539
TAFLVS
TAF
KLVS 020539Z 0206/0306 VRB06KT P6SM BKN100
     FM021900 21011KT P6SM VCTS SCT040 BKN070CB
     FM022200 24011G19KT P6SM VCSH SCT050 BKN080
     FM030300 36008KT P6SM VCSH BKN090=



000
FTUS45 KABQ 020539
TAFGUP
TAF
KGUP 020539Z 0206/0306 VRB06KT P6SM BKN090
     FM021900 23011KT P6SM VCTS BKN060CB
     FM022200 23011G19KT P6SM VCSH SCT060 BKN090
     FM030200 VRB06KT P6SM BKN100=



000
FTUS45 KABQ 020539
TAFSAF
TAF
KSAF 020539Z 0206/0306 VRB06KT P6SM BKN090
     FM020900 36006KT P6SM VCSH SCT050 BKN090
     FM021500 24008KT P6SM BKN090
     FM022000 26010KT P6SM VCSH SCT050 BKN090
     FM022300 VRB15G25KT P6SM VCTS BKN050CB
     FM030200 36011KT P6SM VCSH SCT050 BKN090=



000
FTUS45 KABQ 020539
TAFSAF
TAF
KSAF 020539Z 0206/0306 VRB06KT P6SM BKN090
     FM020900 36006KT P6SM VCSH SCT050 BKN090
     FM021500 24008KT P6SM BKN090
     FM022000 26010KT P6SM VCSH SCT050 BKN090
     FM022300 VRB15G25KT P6SM VCTS BKN050CB
     FM030200 36011KT P6SM VCSH SCT050 BKN090=



000
FTUS45 KABQ 020539
TAFTCC
TAF
KTCC 020539Z 0206/0306 20010KT P6SM BKN120
     FM030000 VRB15G25KT P6SM VCTS BKN060CB
     FM030300 35009KT P6SM BKN100=



000
FTUS45 KABQ 020539
TAFABQ
TAF
KABQ 020539Z 0206/0306 36006KT P6SM VCTS BKN060CB
      TEMPO 0206/0209 VRB10G20KT -SHRA BKN060
     FM020900 VRB06KT P6SM VCSH BKN090
     FM021500 23009KT P6SM BKN100
     FM030000 VRB15G25KT P6SM VCTS BKN060CB
     FM030300 VRB06KT P6SM VCSH SCT060 BKN100=



000
FTUS45 KABQ 020539
TAFTCC
TAF
KTCC 020539Z 0206/0306 20010KT P6SM BKN120
     FM030000 VRB15G25KT P6SM VCTS BKN060CB
     FM030300 35009KT P6SM BKN100=



000
FTUS45 KABQ 020539
TAFABQ
TAF
KABQ 020539Z 0206/0306 36006KT P6SM VCTS BKN060CB
      TEMPO 0206/0209 VRB10G20KT -SHRA BKN060
     FM020900 VRB06KT P6SM VCSH BKN090
     FM021500 23009KT P6SM BKN100
     FM030000 VRB15G25KT P6SM VCTS BKN060CB
     FM030300 VRB06KT P6SM VCSH SCT060 BKN100=



000
FTUS45 KABQ 020520
TAFROW
TAF
KROW 020520Z 0206/0306 17011KT P6SM VCSH SCT060 BKN120
     FM021200 17008KT P6SM BKN100=



000
FTUS45 KABQ 020520
TAFSAF
TAF
KSAF 020520Z 0206/0306 36006KT P6SM BKN090
     FM022000 26010KT P6SM VCSH SCT050 BKN090=



000
FTUS45 KABQ 020148 AAB
TAFABQ
TAF AMD
KABQ 020148Z 0202/0224 36011KT P6SM VCSH SCT060 BKN100
      TEMPO 0202/0204 VRB15G25KT 6SM -TSRA BKN060CB
     FM020400 11008KT P6SM VCSH BKN060
     FM020700 09005KT P6SM BKN100
     FM021500 21006KT P6SM BKN100
     FM022100 23010KT P6SM VCSH SCT060 BKN100=



000
FTUS45 KABQ 020148 AAB
TAFABQ
TAF AMD
KABQ 020148Z 0202/0224 36011KT P6SM VCSH SCT060 BKN100
      TEMPO 0202/0204 VRB15G25KT 6SM -TSRA BKN060CB
     FM020400 11008KT P6SM VCSH BKN060
     FM020700 09005KT P6SM BKN100
     FM021500 21006KT P6SM BKN100
     FM022100 23010KT P6SM VCSH SCT060 BKN100=



000
FTUS45 KABQ 012339
TAFFMN
TAF
KFMN 012339Z 0200/0224 23010KT P6SM VCTS SCT050CB BKN100
     FM020300 09010KT P6SM VCSH SCT050 BKN090
     FM022000 22010KT P6SM VCSH SCT060 BKN100=



000
FTUS45 KABQ 012339
TAFFMN
TAF
KFMN 012339Z 0200/0224 23010KT P6SM VCTS SCT050CB BKN100
     FM020300 09010KT P6SM VCSH SCT050 BKN090
     FM022000 22010KT P6SM VCSH SCT060 BKN100=



000
FTUS45 KABQ 012339
TAFTCC
TAF
KTCC 012339Z 0200/0224 20011KT P6SM VCSH SCT060 BKN100
      TEMPO 0200/0202 VRB20G30KT 6SM -TSRA BKN060CB
     FM020200 20009KT P6SM VCSH SCT060 BKN100
     FM020700 23010KT P6SM BKN100=



000
FTUS45 KABQ 012339
TAFABQ
TAF
KABQ 012339Z 0200/0224 31010KT P6SM VCSH SCT060 BKN100
      TEMPO 0200/0202 VRB15G25KT 6SM -TSRA BKN060CB
     FM020200 12010KT P6SM VCSH SCT060 BKN100
     FM020400 11008KT P6SM VCTS BKN060CB
     FM020700 09005KT P6SM BKN100
     FM021500 21006KT P6SM BKN100
     FM022100 23010KT P6SM VCSH SCT060 BKN100=



000
FTUS45 KABQ 012339
TAFABQ
TAF
KABQ 012339Z 0200/0224 31010KT P6SM VCSH SCT060 BKN100
      TEMPO 0200/0202 VRB15G25KT 6SM -TSRA BKN060CB
     FM020200 12010KT P6SM VCSH SCT060 BKN100
     FM020400 11008KT P6SM VCTS BKN060CB
     FM020700 09005KT P6SM BKN100
     FM021500 21006KT P6SM BKN100
     FM022100 23010KT P6SM VCSH SCT060 BKN100=



000
FTUS45 KABQ 012339
TAFGUP
TAF
KGUP 012339Z 0200/0224 05011KT P6SM VCTS SCT050 BKN080CB
     FM020200 04007KT P6SM VCSH BKN090
     FM020800 VRB05KT P6SM BKN090
     FM021900 26012G22KT P6SM VCSH SCT060 BKN090=



000
FTUS45 KABQ 012339
TAFLVS
TAF
KLVS 012339Z 0200/0224 35010KT P6SM VCSH SCT050 BKN080
     FM020900 21008KT P6SM BKN100
     FM021900 21011KT P6SM VCTS SCT040 BKN070CB
     FM022200 22011KT P6SM VCSH SCT050 BKN080=



000
FTUS45 KABQ 012339
TAFROW
TAF
KROW 012339Z 0200/0224 25011KT P6SM VCSH SCT060 BKN120
     FM021200 17008KT P6SM BKN100=



000
FTUS45 KABQ 012339
TAFLVS
TAF
KLVS 012339Z 0200/0224 35010KT P6SM VCSH SCT050 BKN080
     FM020900 21008KT P6SM BKN100
     FM021900 21011KT P6SM VCTS SCT040 BKN070CB
     FM022200 22011KT P6SM VCSH SCT050 BKN080=



000
FTUS45 KABQ 012339
TAFSAF
TAF
KSAF 012339Z 0200/0224 03010KT P6SM VCSH SCT060 BKN090
     FM020500 03006KT P6SM VCTS SCT030 BKN050CB
     FM020800 36006KT P6SM BKN090
     FM022000 26010KT P6SM VCSH SCT050 BKN090=



000
FTUS45 KABQ 012339
TAFTCC
TAF
KTCC 012339Z 0200/0224 20011KT P6SM VCSH SCT060 BKN100
      TEMPO 0200/0202 VRB20G30KT 6SM -TSRA BKN060CB
     FM020200 20009KT P6SM VCSH SCT060 BKN100
     FM020700 23010KT P6SM BKN100=



000
FTUS45 KABQ 012339
TAFSAF
TAF
KSAF 012339Z 0200/0224 03010KT P6SM VCSH SCT060 BKN090
     FM020500 03006KT P6SM VCTS SCT030 BKN050CB
     FM020800 36006KT P6SM BKN090
     FM022000 26010KT P6SM VCSH SCT050 BKN090=



000
FTUS45 KABQ 012339
TAFROW
TAF
KROW 012339Z 0200/0224 25011KT P6SM VCSH SCT060 BKN120
     FM021200 17008KT P6SM BKN100=



000
FTUS45 KABQ 012339
TAFGUP
TAF
KGUP 012339Z 0200/0224 05011KT P6SM VCTS SCT050 BKN080CB
     FM020200 04007KT P6SM VCSH BKN090
     FM020800 VRB05KT P6SM BKN090
     FM021900 26012G22KT P6SM VCSH SCT060 BKN090=



000
FTUS45 KABQ 012236 AAA
TAFTCC
TAF AMD
KTCC 012236Z 0123/0218 20011KT P6SM VCSH SCT060 BKN100
      TEMPO 0123/0202 VRB20G30KT 6SM -TSRA BKN060CB
     FM020200 17010KT P6SM VCSH BKN110=



000
FTUS45 KABQ 012236 AAA
TAFTCC
TAF AMD
KTCC 012236Z 0123/0218 20011KT P6SM VCSH SCT060 BKN100
      TEMPO 0123/0202 VRB20G30KT 6SM -TSRA BKN060CB
     FM020200 17010KT P6SM VCSH BKN110=



000
FTUS45 KABQ 012233 AAA
TAFROW
TAF AMD
KROW 012233Z 0123/0218 17010KT P6SM VCSH SCT060 SCT120
      TEMPO 0123/0202 VRB15G25KT 6SM -TSRA BKN060CB
     FM020200 18008KT P6SM BKN100=



    US Dept of Commerce
    National Oceanic and Atmospheric Administration
    National Weather Service
    1325 East West Highway
    Silver Spring, MD 20910
    Page Author: NWS Internet Services Team
Disclaimer
Information Quality
Credits
Glossary
Privacy Policy
Freedom of Information Act (FOIA)
About Us
Career Opportunities